TimeWST,TemperatureF,Dew PointF,Humidity,Sea Level PressureIn,VisibilityMPH,Wind Direction,Wind SpeedMPH,Gust SpeedMPH,PrecipitationIn,Events,Conditions,WindDirDegrees,DateUTC
12:00 AM,72,51,36,29.64,,ENE,12.7,,,,,60,2013-01-09 16:00:00
12:00 AM,71.6,50.0,46,29.65,-9999.0,ENE,12.7,-,N/A,,Unknown,60,2013-01-09 16:00:00
1:00 AM,71.6,51.8,50,29.62,-9999.0,ENE,11.5,-,N/A,,Unknown,70,2013-01-09 17:00:00
2:00 AM,69.8,48.2,46,29.62,-9999.0,ENE,13.8,-,N/A,,Unknown,70,2013-01-09 18:00:00
3:00 AM,70,47,32,29.59,,NE,15.0,,,,,40,2013-01-09 19:00:00
3:00 AM,69.8,46.4,43,29.59,-9999.0,NE,15.0,-,N/A,,Unknown,40,2013-01-09 19:00:00
4:00 AM,71.6,44.6,38,29.59,-9999.0,NNE,15.0,-,N/A,,Unknown,20,2013-01-09 20:00:00
5:00 AM,72,46,28,29.58,,NNE,13.8,,,,,30,2013-01-09 21:00:00
5:00 AM,71.6,46.4,41,29.59,-9999.0,NNE,13.8,-,N/A,,Unknown,30,2013-01-09 21:00:00
6:00 AM,79,45,20,29.58,,NNE,17.3,,,,,20,2013-01-09 22:00:00
6:00 AM,78.8,44.6,30,29.59,-9999.0,NNE,17.3,-,N/A,,Unknown,20,2013-01-09 22:00:00
6:56 AM,87.8,42.8,21,29.59,-9999.0,NNE,19.6,-,N/A,,Unknown,20,2013-01-09 22:56:00
7:00 AM,87.8,41.0,19,29.59,-9999.0,North,19.6,-,N/A,,Unknown,10,2013-01-09 23:00:00
8:00 AM,96,37,6,29.55,,North,20.7,,,,,10,2013-01-10 00:00:00
8:00 AM,96.8,37.4,13,29.56,-9999.0,North,20.7,-,N/A,,Unknown,10,2013-01-10 00:00:00
9:00 AM,102,35,4,29.55,,North,18.4,,,,,0,2013-01-10 01:00:00
9:00 AM,102.2,35.6,10,29.56,-9999.0,North,18.4,-,N/A,,Unknown,360,2013-01-10 01:00:00
10:00 AM,105.8,33.8,8,29.56,-9999.0,North,11.5,-,N/A,,Unknown,360,2013-01-10 02:00:00
11:00 AM,111,33,4,29.52,,NNW,10.4,,,,,330,2013-01-10 03:00:00
11:00 AM,111.2,32.0,7,29.53,-9999.0,NNW,10.4,-,N/A,,Unknown,330,2013-01-10 03:00:00
12:00 PM,112,29,4,29.49,,NNW,9.2,,,,,330,2013-01-10 04:00:00
12:00 PM,111.2,30.2,6,29.50,-9999.0,NNW,9.2,-,N/A,,Unknown,330,2013-01-10 04:00:00
1:00 PM,113.0,30.2,6,29.47,-9999.0,West,11.5,-,N/A,,Unknown,280,2013-01-10 05:00:00
2:00 PM,115,32,4,29.46,,WNW,10.4,,,,,290,2013-01-10 06:00:00
2:00 PM,114.8,32.0,6,29.47,-9999.0,WNW,10.4,24.2,N/A,,Unknown,290,2013-01-10 06:00:00
2:26 PM,111.2,39.2,9,29.47,-9999.0,South,23.0,-,N/A,,Unknown,170,2013-01-10 06:26:00
3:00 PM,105,48,8,29.47,,South,28.8,,,,,180,2013-01-10 07:00:00
3:00 PM,105.8,48.2,14,29.47,-9999.0,South,28.8,41.4,N/A,,Unknown,180,2013-01-10 07:00:00
3:59 PM,95.0,53.6,25,29.50,-9999.0,South,29.9,42.6,N/A,,Unknown,190,2013-01-10 07:59:00
4:00 PM,95.0,53.6,25,29.50,-9999.0,South,29.9,42.6,N/A,,Unknown,180,2013-01-10 08:00:00
4:48 PM,86.0,57.2,37,29.53,-9999.0,South,28.8,-,N/A,,Unknown,180,2013-01-10 08:48:00
5:00 PM,84,59,32,29.55,,South,27.6,,,,,180,2013-01-10 09:00:00
5:00 PM,84.2,59.0,42,29.56,-9999.0,South,27.6,-,N/A,,Unknown,180,2013-01-10 09:00:00
6:00 PM,78.8,62.6,57,29.62,-9999.0,South,26.5,-,N/A,,Unknown,180,2013-01-10 10:00:00
6:13 PM,77.0,62.6,61,29.62,-9999.0,South,25.3,36.8,N/A,,Unknown,180,2013-01-10 10:13:00
7:00 PM,73.4,64.4,73,29.65,-9999.0,South,24.2,-,N/A,,Unknown,170,2013-01-10 11:00:00
8:00 PM,72,64,70,29.66,,South,21.9,,,,,170,2013-01-10 12:00:00
8:00 PM,71.6,64.4,78,29.68,-9999.0,South,21.9,-,N/A,,Unknown,170,2013-01-10 12:00:00
8:22 PM,71.6,64.4,78,29.68,-9999.0,South,23.0,34.5,N/A,,Unknown,170,2013-01-10 12:22:00
9:00 PM,71,66,81,29.66,,South,23.0,,,,,170,2013-01-10 13:00:00
9:00 PM,71.6,66.2,83,29.68,-9999.0,South,23.0,-,N/A,,Unknown,170,2013-01-10 13:00:00
10:00 PM,69.8,62.6,78,29.68,-9999.0,South,21.9,-,N/A,,Unknown,180,2013-01-10 14:00:00
11:00 PM,68,60,70,29.67,,South,18.4,,,,,170,2013-01-10 15:00:00
11:00 PM,68.0,60.8,78,29.68,-9999.0,South,18.4,-,N/A,,Unknown,170,2013-01-10 15:00:00